sensor_id;sensor_type;location;lat;lon;timestamp;P1;durP1;ratioP1;P2;durP2;ratioP2
66020;SDS011;52789;59.980;30.346;2023-11-19T00:00:57;4.60;;;3.93;;
66020;SDS011;52789;59.980;30.346;2023-11-19T00:03:22;3.87;;;3.40;;
66020;SDS011;52789;59.980;30.346;2023-11-19T00:05:48;4.20;;;3.30;;
66020;SDS011;52789;59.980;30.346;2023-11-19T00:08:13;4.80;;;3.70;;
66020;SDS011;52789;59.980;30.346;2023-11-19T00:10:39;7.90;;;4.93;;
66020;SDS011;52789;59.980;30.346;2023-11-19T00:13:04;5.90;;;4.10;;
66020;SDS011;52789;59.980;30.346;2023-11-19T00:15:30;4.10;;;3.50;;
66020;SDS011;52789;59.980;30.346;2023-11-19T00:17:56;6.63;;;3.43;;
66020;SDS011;52789;59.980;30.346;2023-11-19T00:20:21;7.10;;;4.90;;
66020;SDS011;52789;59.980;30.346;2023-11-19T00:22:47;11.10;;;4.87;;
66020;SDS011;52789;59.980;30.346;2023-11-19T00:25:17;6.55;;;4.63;;
66020;SDS011;52789;59.980;30.346;2023-11-19T00:27:44;5.93;;;4.43;;
66020;SDS011;52789;59.980;30.346;2023-11-19T00:30:10;5.20;;;4.40;;
66020;SDS011;52789;59.980;30.346;2023-11-19T00:32:36;9.73;;;7.53;;
66020;SDS011;52789;59.980;30.346;2023-11-19T00:35:04;5.65;;;4.22;;
66020;SDS011;52789;59.980;30.346;2023-11-19T00:37:32;7.60;;;5.07;;
66020;SDS011;52789;59.980;30.346;2023-11-19T00:39:58;5.13;;;3.53;;
66020;SDS011;52789;59.980;30.346;2023-11-19T00:42:24;4.33;;;3.47;;
66020;SDS011;52789;59.980;30.346;2023-11-19T00:44:50;4.50;;;4.10;;
66020;SDS011;52789;59.980;30.346;2023-11-19T00:47:16;7.33;;;3.50;;
66020;SDS011;52789;59.980;30.346;2023-11-19T00:49:41;7.37;;;3.40;;
66020;SDS011;52789;59.980;30.346;2023-11-19T00:52:08;4.38;;;3.97;;
66020;SDS011;52789;59.980;30.346;2023-11-19T00:54:33;4.07;;;2.97;;
66020;SDS011;52789;59.980;30.346;2023-11-19T00:56:59;4.07;;;3.50;;
66020;SDS011;52789;59.980;30.346;2023-11-19T00:59:26;5.45;;;3.50;;
66020;SDS011;52789;59.980;30.346;2023-11-19T01:01:53;4.22;;;3.55;;
66020;SDS011;52789;59.980;30.346;2023-11-19T01:04:19;9.27;;;4.27;;
66020;SDS011;52789;59.980;30.346;2023-11-19T01:06:45;3.70;;;3.17;;
66020;SDS011;52789;59.980;30.346;2023-11-19T01:09:11;5.77;;;3.63;;
66020;SDS011;52789;59.980;30.346;2023-11-19T01:11:36;5.90;;;3.17;;
66020;SDS011;52789;59.980;30.346;2023-11-19T01:14:02;4.80;;;3.17;;
66020;SDS011;52789;59.980;30.346;2023-11-19T01:16:28;3.77;;;3.00;;
66020;SDS011;52789;59.980;30.346;2023-11-19T01:18:53;4.20;;;3.37;;
66020;SDS011;52789;59.980;30.346;2023-11-19T01:21:19;2.90;;;2.60;;
66020;SDS011;52789;59.980;30.346;2023-11-19T01:23:45;6.07;;;3.13;;
66020;SDS011;52789;59.980;30.346;2023-11-19T01:26:12;3.90;;;2.95;;
66020;SDS011;52789;59.980;30.346;2023-11-19T01:28:39;3.70;;;3.13;;
66020;SDS011;52789;59.980;30.346;2023-11-19T01:31:05;3.97;;;3.58;;
66020;SDS011;52789;59.980;30.346;2023-11-19T01:33:35;3.67;;;2.80;;
66020;SDS011;52789;59.980;30.346;2023-11-19T01:36:01;3.28;;;2.97;;
66020;SDS011;52789;59.980;30.346;2023-11-19T01:38:27;3.57;;;2.70;;
66020;SDS011;52789;59.980;30.346;2023-11-19T01:40:55;2.70;;;2.50;;
66020;SDS011;52789;59.980;30.346;2023-11-19T01:43:43;3.35;;;3.05;;
66020;SDS011;52789;59.980;30.346;2023-11-19T01:46:12;3.30;;;3.00;;
66020;SDS011;52789;59.980;30.346;2023-11-19T01:48:42;3.10;;;2.80;;
66020;SDS011;52789;59.980;30.346;2023-11-19T01:51:10;3.17;;;2.88;;
66020;SDS011;52789;59.980;30.346;2023-11-19T01:53:37;9.35;;;4.35;;
66020;SDS011;52789;59.980;30.346;2023-11-19T01:56:06;4.50;;;3.03;;
66020;SDS011;52789;59.980;30.346;2023-11-19T01:58:36;4.90;;;2.70;;
66020;SDS011;52789;59.980;30.346;2023-11-19T02:01:02;3.50;;;2.97;;
66020;SDS011;52789;59.980;30.346;2023-11-19T02:03:30;3.20;;;2.90;;
66020;SDS011;52789;59.980;30.346;2023-11-19T02:05:58;3.00;;;2.80;;
66020;SDS011;52789;59.980;30.346;2023-11-19T02:08:24;3.75;;;2.80;;
66020;SDS011;52789;59.980;30.346;2023-11-19T02:10:51;3.35;;;2.85;;
66020;SDS011;52789;59.980;30.346;2023-11-19T02:13:20;3.20;;;2.70;;
66020;SDS011;52789;59.980;30.346;2023-11-19T02:16:11;3.22;;;2.92;;
66020;SDS011;52789;59.980;30.346;2023-11-19T02:18:37;4.37;;;3.20;;
66020;SDS011;52789;59.980;30.346;2023-11-19T02:21:04;3.30;;;2.95;;
66020;SDS011;52789;59.980;30.346;2023-11-19T02:23:30;2.85;;;2.58;;
66020;SDS011;52789;59.980;30.346;2023-11-19T02:28:43;3.00;;;2.70;;
66020;SDS011;52789;59.980;30.346;2023-11-19T02:31:09;4.10;;;3.13;;
66020;SDS011;52789;59.980;30.346;2023-11-19T02:33:36;4.05;;;3.10;;
66020;SDS011;52789;59.980;30.346;2023-11-19T02:36:05;4.97;;;3.08;;
66020;SDS011;52789;59.980;30.346;2023-11-19T02:38:32;2.45;;;2.20;;
66020;SDS011;52789;59.980;30.346;2023-11-19T02:41:02;3.05;;;2.80;;
66020;SDS011;52789;59.980;30.346;2023-11-19T02:43:30;4.78;;;3.05;;
66020;SDS011;52789;59.980;30.346;2023-11-19T02:46:02;3.80;;;3.08;;
66020;SDS011;52789;59.980;30.346;2023-11-19T02:48:29;2.95;;;2.63;;
66020;SDS011;52789;59.980;30.346;2023-11-19T02:50:56;4.03;;;2.92;;
66020;SDS011;52789;59.980;30.346;2023-11-19T02:53:23;4.32;;;2.90;;
66020;SDS011;52789;59.980;30.346;2023-11-19T02:55:50;5.40;;;2.80;;
66020;SDS011;52789;59.980;30.346;2023-11-19T02:58:16;3.23;;;2.67;;
66020;SDS011;52789;59.980;30.346;2023-11-19T03:00:53;3.17;;;2.50;;
66020;SDS011;52789;59.980;30.346;2023-11-19T03:03:34;2.92;;;2.67;;
66020;SDS011;52789;59.980;30.346;2023-11-19T03:08:35;4.20;;;3.40;;
66020;SDS011;52789;59.980;30.346;2023-11-19T03:11:01;4.55;;;2.65;;
66020;SDS011;52789;59.980;30.346;2023-11-19T03:13:27;6.65;;;3.15;;
66020;SDS011;52789;59.980;30.346;2023-11-19T03:15:52;4.53;;;3.63;;
66020;SDS011;52789;59.980;30.346;2023-11-19T03:18:19;6.70;;;3.65;;
66020;SDS011;52789;59.980;30.346;2023-11-19T03:20:48;7.35;;;3.17;;
66020;SDS011;52789;59.980;30.346;2023-11-19T03:23:15;4.45;;;3.80;;
66020;SDS011;52789;59.980;30.346;2023-11-19T03:25:40;3.63;;;3.10;;
66020;SDS011;52789;59.980;30.346;2023-11-19T03:28:08;3.00;;;2.70;;
66020;SDS011;52789;59.980;30.346;2023-11-19T03:30:35;4.05;;;3.08;;
66020;SDS011;52789;59.980;30.346;2023-11-19T03:33:00;3.73;;;3.07;;
66020;SDS011;52789;59.980;30.346;2023-11-19T03:35:26;3.42;;;3.13;;
66020;SDS011;52789;59.980;30.346;2023-11-19T03:37:53;3.10;;;2.70;;
66020;SDS011;52789;59.980;30.346;2023-11-19T03:40:18;3.10;;;2.83;;
66020;SDS011;52789;59.980;30.346;2023-11-19T03:42:46;7.40;;;3.92;;
66020;SDS011;52789;59.980;30.346;2023-11-19T03:45:12;3.78;;;2.78;;
66020;SDS011;52789;59.980;30.346;2023-11-19T03:47:38;3.37;;;2.80;;
66020;SDS011;52789;59.980;30.346;2023-11-19T03:50:04;3.72;;;2.85;;
66020;SDS011;52789;59.980;30.346;2023-11-19T03:52:30;3.22;;;2.72;;
66020;SDS011;52789;59.980;30.346;2023-11-19T03:54:56;3.50;;;2.77;;
66020;SDS011;52789;59.980;30.346;2023-11-19T03:57:22;3.67;;;2.65;;
66020;SDS011;52789;59.980;30.346;2023-11-19T03:59:48;4.22;;;3.92;;
66020;SDS011;52789;59.980;30.346;2023-11-19T04:02:14;4.20;;;2.90;;
66020;SDS011;52789;59.980;30.346;2023-11-19T04:04:41;7.20;;;3.47;;
66020;SDS011;52789;59.980;30.346;2023-11-19T04:07:06;6.60;;;2.87;;
66020;SDS011;52789;59.980;30.346;2023-11-19T04:09:32;4.63;;;3.10;;
66020;SDS011;52789;59.980;30.346;2023-11-19T04:11:58;3.03;;;2.70;;
66020;SDS011;52789;59.980;30.346;2023-11-19T04:14:25;3.30;;;3.00;;
66020;SDS011;52789;59.980;30.346;2023-11-19T04:16:51;9.13;;;3.20;;
66020;SDS011;52789;59.980;30.346;2023-11-19T04:19:17;4.10;;;3.03;;
66020;SDS011;52789;59.980;30.346;2023-11-19T04:21:43;4.63;;;3.75;;
66020;SDS011;52789;59.980;30.346;2023-11-19T04:24:09;7.33;;;3.83;;
66020;SDS011;52789;59.980;30.346;2023-11-19T04:26:44;4.40;;;2.90;;
66020;SDS011;52789;59.980;30.346;2023-11-19T04:29:11;3.72;;;3.25;;
66020;SDS011;52789;59.980;30.346;2023-11-19T04:31:38;5.05;;;3.03;;
66020;SDS011;52789;59.980;30.346;2023-11-19T04:34:05;5.10;;;3.22;;
66020;SDS011;52789;59.980;30.346;2023-11-19T04:36:31;5.43;;;2.97;;
66020;SDS011;52789;59.980;30.346;2023-11-19T04:39:01;4.70;;;3.17;;
66020;SDS011;52789;59.980;30.346;2023-11-19T04:41:28;10.18;;;3.67;;
66020;SDS011;52789;59.980;30.346;2023-11-19T04:43:53;4.23;;;3.10;;
66020;SDS011;52789;59.980;30.346;2023-11-19T04:46:20;4.82;;;3.67;;
66020;SDS011;52789;59.980;30.346;2023-11-19T04:48:46;7.23;;;3.40;;
66020;SDS011;52789;59.980;30.346;2023-11-19T04:51:11;5.40;;;3.00;;
66020;SDS011;52789;59.980;30.346;2023-11-19T04:53:37;3.90;;;3.20;;
66020;SDS011;52789;59.980;30.346;2023-11-19T04:56:09;5.07;;;3.47;;
66020;SDS011;52789;59.980;30.346;2023-11-19T04:58:36;7.65;;;3.83;;
66020;SDS011;52789;59.980;30.346;2023-11-19T05:01:05;5.30;;;4.00;;
66020;SDS011;52789;59.980;30.346;2023-11-19T05:03:31;4.57;;;3.72;;
66020;SDS011;52789;59.980;30.346;2023-11-19T05:05:57;4.60;;;3.63;;
66020;SDS011;52789;59.980;30.346;2023-11-19T05:08:23;6.68;;;4.13;;
66020;SDS011;52789;59.980;30.346;2023-11-19T05:10:49;6.60;;;3.80;;
66020;SDS011;52789;59.980;30.346;2023-11-19T05:13:15;7.33;;;4.63;;
66020;SDS011;52789;59.980;30.346;2023-11-19T05:15:40;10.90;;;4.50;;
66020;SDS011;52789;59.980;30.346;2023-11-19T05:18:06;6.60;;;4.13;;
66020;SDS011;52789;59.980;30.346;2023-11-19T05:20:32;6.03;;;4.03;;
66020;SDS011;52789;59.980;30.346;2023-11-19T05:22:58;8.20;;;5.37;;
66020;SDS011;52789;59.980;30.346;2023-11-19T05:25:26;8.13;;;5.43;;
66020;SDS011;52789;59.980;30.346;2023-11-19T05:27:54;8.18;;;4.82;;
66020;SDS011;52789;59.980;30.346;2023-11-19T05:30:19;11.15;;;4.20;;
66020;SDS011;52789;59.980;30.346;2023-11-19T05:32:45;12.17;;;5.07;;
66020;SDS011;52789;59.980;30.346;2023-11-19T05:35:11;7.90;;;5.27;;
66020;SDS011;52789;59.980;30.346;2023-11-19T05:37:37;7.97;;;4.10;;
66020;SDS011;52789;59.980;30.346;2023-11-19T05:40:03;8.37;;;4.00;;
66020;SDS011;52789;59.980;30.346;2023-11-19T05:42:32;13.35;;;4.32;;
66020;SDS011;52789;59.980;30.346;2023-11-19T05:44:57;9.97;;;4.07;;
66020;SDS011;52789;59.980;30.346;2023-11-19T05:47:23;8.20;;;3.83;;
66020;SDS011;52789;59.980;30.346;2023-11-19T05:49:48;10.33;;;5.47;;
66020;SDS011;52789;59.980;30.346;2023-11-19T05:52:14;9.90;;;3.93;;
66020;SDS011;52789;59.980;30.346;2023-11-19T05:54:40;11.13;;;4.37;;
66020;SDS011;52789;59.980;30.346;2023-11-19T05:57:05;6.30;;;4.30;;
66020;SDS011;52789;59.980;30.346;2023-11-19T05:59:34;9.18;;;4.40;;
66020;SDS011;52789;59.980;30.346;2023-11-19T06:02:01;10.43;;;5.03;;
66020;SDS011;52789;59.980;30.346;2023-11-19T06:04:28;12.88;;;4.53;;
66020;SDS011;52789;59.980;30.346;2023-11-19T06:06:53;13.47;;;5.27;;
66020;SDS011;52789;59.980;30.346;2023-11-19T06:09:22;8.13;;;4.10;;
66020;SDS011;52789;59.980;30.346;2023-11-19T06:11:49;9.43;;;4.30;;
66020;SDS011;52789;59.980;30.346;2023-11-19T06:14:16;7.35;;;3.85;;
66020;SDS011;52789;59.980;30.346;2023-11-19T06:16:42;11.83;;;4.53;;
66020;SDS011;52789;59.980;30.346;2023-11-19T06:19:07;10.30;;;4.47;;
66020;SDS011;52789;59.980;30.346;2023-11-19T06:21:33;8.73;;;4.13;;
66020;SDS011;52789;59.980;30.346;2023-11-19T06:24:00;7.30;;;4.22;;
66020;SDS011;52789;59.980;30.346;2023-11-19T06:26:26;11.70;;;4.53;;
66020;SDS011;52789;59.980;30.346;2023-11-19T06:28:53;11.07;;;4.30;;
66020;SDS011;52789;59.980;30.346;2023-11-19T06:31:19;7.07;;;3.65;;
66020;SDS011;52789;59.980;30.346;2023-11-19T06:33:45;8.60;;;4.17;;
66020;SDS011;52789;59.980;30.346;2023-11-19T06:36:14;11.18;;;4.53;;
66020;SDS011;52789;59.980;30.346;2023-11-19T06:38:41;12.55;;;4.75;;
66020;SDS011;52789;59.980;30.346;2023-11-19T06:41:07;19.17;;;6.50;;
66020;SDS011;52789;59.980;30.346;2023-11-19T06:43:34;16.08;;;5.78;;
66020;SDS011;52789;59.980;30.346;2023-11-19T06:46:00;10.23;;;5.43;;
66020;SDS011;52789;59.980;30.346;2023-11-19T06:48:27;8.98;;;4.53;;
66020;SDS011;52789;59.980;30.346;2023-11-19T06:50:52;14.90;;;6.47;;
66020;SDS011;52789;59.980;30.346;2023-11-19T06:53:18;9.60;;;4.70;;
66020;SDS011;52789;59.980;30.346;2023-11-19T06:55:44;11.30;;;6.17;;
66020;SDS011;52789;59.980;30.346;2023-11-19T06:58:10;11.67;;;5.13;;
66020;SDS011;52789;59.980;30.346;2023-11-19T07:00:35;10.37;;;3.83;;
66020;SDS011;52789;59.980;30.346;2023-11-19T07:03:01;10.67;;;4.60;;
66020;SDS011;52789;59.980;30.346;2023-11-19T07:05:27;11.80;;;4.43;;
66020;SDS011;52789;59.980;30.346;2023-11-19T07:07:53;7.10;;;3.95;;
66020;SDS011;52789;59.980;30.346;2023-11-19T07:10:19;11.68;;;4.47;;
66020;SDS011;52789;59.980;30.346;2023-11-19T07:12:45;7.17;;;3.50;;
66020;SDS011;52789;59.980;30.346;2023-11-19T07:15:11;18.77;;;4.10;;
66020;SDS011;52789;59.980;30.346;2023-11-19T07:17:38;23.67;;;5.05;;
66020;SDS011;52789;59.980;30.346;2023-11-19T07:20:05;9.57;;;4.72;;
66020;SDS011;52789;59.980;30.346;2023-11-19T07:22:31;9.43;;;4.63;;
66020;SDS011;52789;59.980;30.346;2023-11-19T07:24:56;6.27;;;4.60;;
66020;SDS011;52789;59.980;30.346;2023-11-19T07:27:22;14.97;;;4.97;;
66020;SDS011;52789;59.980;30.346;2023-11-19T07:29:49;10.88;;;4.88;;
66020;SDS011;52789;59.980;30.346;2023-11-19T07:32:15;11.33;;;5.03;;
66020;SDS011;52789;59.980;30.346;2023-11-19T07:34:40;16.57;;;6.23;;
66020;SDS011;52789;59.980;30.346;2023-11-19T07:37:06;7.47;;;4.77;;
66020;SDS011;52789;59.980;30.346;2023-11-19T07:39:32;12.70;;;5.73;;
66020;SDS011;52789;59.980;30.346;2023-11-19T07:41:58;15.57;;;5.40;;
66020;SDS011;52789;59.980;30.346;2023-11-19T07:44:23;22.53;;;6.57;;
66020;SDS011;52789;59.980;30.346;2023-11-19T07:46:49;10.98;;;4.82;;
66020;SDS011;52789;59.980;30.346;2023-11-19T07:49:15;15.80;;;5.90;;
66020;SDS011;52789;59.980;30.346;2023-11-19T07:51:41;13.63;;;4.73;;
66020;SDS011;52789;59.980;30.346;2023-11-19T07:54:07;17.07;;;5.57;;
66020;SDS011;52789;59.980;30.346;2023-11-19T07:56:35;8.77;;;4.83;;
66020;SDS011;52789;59.980;30.346;2023-11-19T07:59:01;21.10;;;6.78;;
66020;SDS011;52789;59.980;30.346;2023-11-19T08:01:27;15.20;;;6.45;;
66020;SDS011;52789;59.980;30.346;2023-11-19T08:03:53;49.73;;;11.10;;
66020;SDS011;52789;59.980;30.346;2023-11-19T08:06:19;16.10;;;7.93;;
66020;SDS011;52789;59.980;30.346;2023-11-19T08:08:45;14.60;;;7.93;;
66020;SDS011;52789;59.980;30.346;2023-11-19T08:11:10;11.30;;;5.20;;
66020;SDS011;52789;59.980;30.346;2023-11-19T08:13:36;9.37;;;5.17;;
66020;SDS011;52789;59.980;30.346;2023-11-19T08:16:02;8.47;;;4.57;;
66020;SDS011;52789;59.980;30.346;2023-11-19T08:18:27;12.07;;;4.67;;
66020;SDS011;52789;59.980;30.346;2023-11-19T08:20:53;8.10;;;4.43;;
66020;SDS011;52789;59.980;30.346;2023-11-19T08:23:19;18.33;;;5.18;;
66020;SDS011;52789;59.980;30.346;2023-11-19T08:25:46;13.18;;;5.47;;
66020;SDS011;52789;59.980;30.346;2023-11-19T08:28:12;10.30;;;4.50;;
66020;SDS011;52789;59.980;30.346;2023-11-19T08:30:38;13.50;;;5.18;;
66020;SDS011;52789;59.980;30.346;2023-11-19T08:33:04;13.07;;;6.27;;
66020;SDS011;52789;59.980;30.346;2023-11-19T08:35:31;24.50;;;10.30;;
66020;SDS011;52789;59.980;30.346;2023-11-19T08:37:57;15.93;;;7.45;;
66020;SDS011;52789;59.980;30.346;2023-11-19T08:40:24;15.73;;;6.68;;
66020;SDS011;52789;59.980;30.346;2023-11-19T08:42:51;18.70;;;5.57;;
66020;SDS011;52789;59.980;30.346;2023-11-19T08:45:16;15.37;;;6.53;;
66020;SDS011;52789;59.980;30.346;2023-11-19T08:47:42;12.10;;;5.23;;
66020;SDS011;52789;59.980;30.346;2023-11-19T08:50:08;16.00;;;5.40;;
66020;SDS011;52789;59.980;30.346;2023-11-19T08:52:37;17.77;;;4.22;;
66020;SDS011;52789;59.980;30.346;2023-11-19T08:55:02;11.18;;;5.60;;
66020;SDS011;52789;59.980;30.346;2023-11-19T08:57:31;17.50;;;5.32;;
66020;SDS011;52789;59.980;30.346;2023-11-19T08:59:58;9.15;;;5.10;;
66020;SDS011;52789;59.980;30.346;2023-11-19T09:02:25;9.02;;;5.55;;
66020;SDS011;52789;59.980;30.346;2023-11-19T09:04:51;16.13;;;4.68;;
66020;SDS011;52789;59.980;30.346;2023-11-19T09:07:16;11.60;;;5.00;;
66020;SDS011;52789;59.980;30.346;2023-11-19T09:09:42;13.10;;;5.57;;
66020;SDS011;52789;59.980;30.346;2023-11-19T09:12:07;17.90;;;4.87;;
66020;SDS011;52789;59.980;30.346;2023-11-19T09:14:33;9.37;;;5.23;;
66020;SDS011;52789;59.980;30.346;2023-11-19T09:16:59;15.98;;;5.30;;
66020;SDS011;52789;59.980;30.346;2023-11-19T09:19:25;18.33;;;4.70;;
66020;SDS011;52789;59.980;30.346;2023-11-19T09:24:23;12.80;;;4.93;;
66020;SDS011;52789;59.980;30.346;2023-11-19T09:26:49;12.13;;;4.47;;
66020;SDS011;52789;59.980;30.346;2023-11-19T09:29:23;14.73;;;4.65;;
66020;SDS011;52789;59.980;30.346;2023-11-19T09:31:49;13.32;;;4.68;;
66020;SDS011;52789;59.980;30.346;2023-11-19T09:34:15;13.60;;;5.83;;
66020;SDS011;52789;59.980;30.346;2023-11-19T09:36:40;10.40;;;5.53;;
66020;SDS011;52789;59.980;30.346;2023-11-19T09:39:09;61.17;;;8.73;;
66020;SDS011;52789;59.980;30.346;2023-11-19T09:41:43;15.57;;;7.82;;
66020;SDS011;52789;59.980;30.346;2023-11-19T09:44:10;14.88;;;5.20;;
66020;SDS011;52789;59.980;30.346;2023-11-19T09:46:46;14.57;;;6.40;;
66020;SDS011;52789;59.980;30.346;2023-11-19T09:49:14;13.05;;;6.43;;
66020;SDS011;52789;59.980;30.346;2023-11-19T09:51:49;14.18;;;5.30;;
66020;SDS011;52789;59.980;30.346;2023-11-19T09:54:15;9.75;;;4.90;;
66020;SDS011;52789;59.980;30.346;2023-11-19T09:56:40;14.27;;;6.80;;
66020;SDS011;52789;59.980;30.346;2023-11-19T09:59:06;20.73;;;6.53;;
66020;SDS011;52789;59.980;30.346;2023-11-19T10:01:38;16.37;;;6.60;;
66020;SDS011;52789;59.980;30.346;2023-11-19T10:04:04;17.83;;;7.22;;
66020;SDS011;52789;59.980;30.346;2023-11-19T10:06:31;12.65;;;5.72;;
66020;SDS011;52789;59.980;30.346;2023-11-19T10:08:57;10.67;;;5.80;;
66020;SDS011;52789;59.980;30.346;2023-11-19T10:11:26;12.17;;;6.60;;
66020;SDS011;52789;59.980;30.346;2023-11-19T10:13:52;20.77;;;5.90;;
66020;SDS011;52789;59.980;30.346;2023-11-19T10:16:27;25.97;;;6.30;;
66020;SDS011;52789;59.980;30.346;2023-11-19T10:18:55;17.95;;;6.90;;
66020;SDS011;52789;59.980;30.346;2023-11-19T10:21:21;16.83;;;6.60;;
66020;SDS011;52789;59.980;30.346;2023-11-19T10:23:51;32.33;;;7.75;;
66020;SDS011;52789;59.980;30.346;2023-11-19T10:26:19;22.40;;;6.57;;
66020;SDS011;52789;59.980;30.346;2023-11-19T10:28:47;20.27;;;7.03;;
66020;SDS011;52789;59.980;30.346;2023-11-19T10:31:14;14.00;;;6.17;;
66020;SDS011;52789;59.980;30.346;2023-11-19T10:33:44;20.27;;;8.53;;
66020;SDS011;52789;59.980;30.346;2023-11-19T10:36:11;19.15;;;6.53;;
66020;SDS011;52789;59.980;30.346;2023-11-19T10:38:40;24.00;;;7.23;;
66020;SDS011;52789;59.980;30.346;2023-11-19T10:43:54;18.75;;;7.22;;
66020;SDS011;52789;59.980;30.346;2023-11-19T10:46:19;16.10;;;7.23;;
66020;SDS011;52789;59.980;30.346;2023-11-19T10:48:48;12.18;;;6.47;;
66020;SDS011;52789;59.980;30.346;2023-11-19T10:51:17;17.93;;;7.13;;
66020;SDS011;52789;59.980;30.346;2023-11-19T10:53:49;18.50;;;6.30;;
66020;SDS011;52789;59.980;30.346;2023-11-19T10:56:16;24.53;;;7.47;;
66020;SDS011;52789;59.980;30.346;2023-11-19T10:58:44;20.65;;;7.63;;
66020;SDS011;52789;59.980;30.346;2023-11-19T11:01:18;16.67;;;8.37;;
66020;SDS011;52789;59.980;30.346;2023-11-19T11:03:48;25.77;;;8.30;;
66020;SDS011;52789;59.980;30.346;2023-11-19T11:06:16;19.38;;;9.27;;
66020;SDS011;52789;59.980;30.346;2023-11-19T11:08:43;16.60;;;7.40;;
66020;SDS011;52789;59.980;30.346;2023-11-19T11:11:11;20.73;;;8.97;;
66020;SDS011;52789;59.980;30.346;2023-11-19T11:13:46;14.80;;;7.70;;
66020;SDS011;52789;59.980;30.346;2023-11-19T11:16:18;26.10;;;6.97;;
66020;SDS011;52789;59.980;30.346;2023-11-19T11:18:47;15.77;;;6.07;;
66020;SDS011;52789;59.980;30.346;2023-11-19T11:21:16;14.30;;;5.60;;
66020;SDS011;52789;59.980;30.346;2023-11-19T11:23:49;12.20;;;5.13;;
66020;SDS011;52789;59.980;30.346;2023-11-19T11:29:41;14.27;;;5.43;;
66020;SDS011;52789;59.980;30.346;2023-11-19T11:37:56;14.10;;;5.90;;
66020;SDS011;52789;59.980;30.346;2023-11-19T11:40:31;23.05;;;6.25;;
66020;SDS011;52789;59.980;30.346;2023-11-19T11:42:58;17.65;;;8.60;;
66020;SDS011;52789;59.980;30.346;2023-11-19T11:45:35;13.88;;;5.68;;
66020;SDS011;52789;59.980;30.346;2023-11-19T11:50:47;16.40;;;8.47;;
66020;SDS011;52789;59.980;30.346;2023-11-19T11:53:17;18.25;;;6.55;;
66020;SDS011;52789;59.980;30.346;2023-11-19T11:58:13;13.85;;;6.15;;
66020;SDS011;52789;59.980;30.346;2023-11-19T12:00:40;19.27;;;5.97;;
66020;SDS011;52789;59.980;30.346;2023-11-19T12:03:07;16.73;;;6.10;;
66020;SDS011;52789;59.980;30.346;2023-11-19T12:05:38;12.77;;;6.87;;
66020;SDS011;52789;59.980;30.346;2023-11-19T12:08:06;10.60;;;6.75;;
66020;SDS011;52789;59.980;30.346;2023-11-19T12:10:37;14.93;;;6.72;;
66020;SDS011;52789;59.980;30.346;2023-11-19T12:13:12;21.75;;;7.68;;
66020;SDS011;52789;59.980;30.346;2023-11-19T12:18:23;21.33;;;8.50;;
66020;SDS011;52789;59.980;30.346;2023-11-19T12:20:51;14.88;;;6.90;;
66020;SDS011;52789;59.980;30.346;2023-11-19T12:23:17;12.80;;;6.87;;
66020;SDS011;52789;59.980;30.346;2023-11-19T12:25:43;18.48;;;6.80;;
66020;SDS011;52789;59.980;30.346;2023-11-19T12:28:14;12.23;;;8.40;;
66020;SDS011;52789;59.980;30.346;2023-11-19T12:30:44;13.75;;;7.60;;
66020;SDS011;52789;59.980;30.346;2023-11-19T12:33:11;13.15;;;6.53;;
66020;SDS011;52789;59.980;30.346;2023-11-19T12:35:41;9.98;;;5.45;;
66020;SDS011;52789;59.980;30.346;2023-11-19T12:38:08;9.88;;;5.95;;
66020;SDS011;52789;59.980;30.346;2023-11-19T12:40:46;11.27;;;5.55;;
66020;SDS011;52789;59.980;30.346;2023-11-19T12:43:20;12.10;;;6.75;;
66020;SDS011;52789;59.980;30.346;2023-11-19T12:45:50;9.45;;;6.13;;
66020;SDS011;52789;59.980;30.346;2023-11-19T12:48:16;13.75;;;7.47;;
66020;SDS011;52789;59.980;30.346;2023-11-19T12:50:55;9.77;;;5.85;;
66020;SDS011;52789;59.980;30.346;2023-11-19T12:53:25;14.23;;;7.07;;
66020;SDS011;52789;59.980;30.346;2023-11-19T12:55:53;14.85;;;6.38;;
66020;SDS011;52789;59.980;30.346;2023-11-19T12:58:33;12.43;;;7.68;;
66020;SDS011;52789;59.980;30.346;2023-11-19T13:01:06;10.13;;;6.57;;
66020;SDS011;52789;59.980;30.346;2023-11-19T13:03:33;11.38;;;7.90;;
66020;SDS011;52789;59.980;30.346;2023-11-19T13:06:01;14.50;;;6.63;;
66020;SDS011;52789;59.980;30.346;2023-11-19T13:08:35;11.25;;;5.55;;
66020;SDS011;52789;59.980;30.346;2023-11-19T13:11:03;8.27;;;5.60;;
66020;SDS011;52789;59.980;30.346;2023-11-19T13:13:28;9.73;;;5.90;;
66020;SDS011;52789;59.980;30.346;2023-11-19T13:16:01;16.83;;;6.13;;
66020;SDS011;52789;59.980;30.346;2023-11-19T13:18:30;9.50;;;5.30;;
66020;SDS011;52789;59.980;30.346;2023-11-19T13:20:57;11.88;;;6.60;;
66020;SDS011;52789;59.980;30.346;2023-11-19T13:23:22;8.50;;;5.00;;
66020;SDS011;52789;59.980;30.346;2023-11-19T13:25:48;13.33;;;6.20;;
66020;SDS011;52789;59.980;30.346;2023-11-19T13:28:14;7.60;;;5.77;;
66020;SDS011;52789;59.980;30.346;2023-11-19T13:30:43;14.00;;;5.75;;
66020;SDS011;52789;59.980;30.346;2023-11-19T13:33:08;9.40;;;5.80;;
66020;SDS011;52789;59.980;30.346;2023-11-19T13:35:37;14.77;;;6.28;;
66020;SDS011;52789;59.980;30.346;2023-11-19T13:38:05;17.25;;;7.07;;
66020;SDS011;52789;59.980;30.346;2023-11-19T13:40:34;11.48;;;5.75;;
66020;SDS011;52789;59.980;30.346;2023-11-19T13:43:00;10.57;;;5.95;;
66020;SDS011;52789;59.980;30.346;2023-11-19T13:45:25;16.47;;;5.63;;
66020;SDS011;52789;59.980;30.346;2023-11-19T13:47:51;9.47;;;6.40;;
66020;SDS011;52789;59.980;30.346;2023-11-19T13:50:17;12.40;;;6.30;;
66020;SDS011;52789;59.980;30.346;2023-11-19T13:52:43;10.47;;;6.47;;
66020;SDS011;52789;59.980;30.346;2023-11-19T13:55:11;10.73;;;6.82;;
66020;SDS011;52789;59.980;30.346;2023-11-19T13:57:38;22.75;;;10.15;;
66020;SDS011;52789;59.980;30.346;2023-11-19T14:00:06;11.80;;;7.10;;
66020;SDS011;52789;59.980;30.346;2023-11-19T14:02:41;17.38;;;7.07;;
66020;SDS011;52789;59.980;30.346;2023-11-19T14:05:07;12.55;;;6.15;;
66020;SDS011;52789;59.980;30.346;2023-11-19T14:07:33;15.07;;;6.20;;
66020;SDS011;52789;59.980;30.346;2023-11-19T14:09:59;11.73;;;5.53;;
66020;SDS011;52789;59.980;30.346;2023-11-19T14:12:25;10.27;;;6.57;;
66020;SDS011;52789;59.980;30.346;2023-11-19T14:14:50;9.23;;;5.70;;
66020;SDS011;52789;59.980;30.346;2023-11-19T14:17:16;10.53;;;5.10;;
66020;SDS011;52789;59.980;30.346;2023-11-19T14:19:42;12.43;;;5.67;;
66020;SDS011;52789;59.980;30.346;2023-11-19T14:22:14;10.68;;;5.72;;
66020;SDS011;52789;59.980;30.346;2023-11-19T14:24:40;6.53;;;5.22;;
66020;SDS011;52789;59.980;30.346;2023-11-19T14:27:07;13.00;;;7.57;;
66020;SDS011;52789;59.980;30.346;2023-11-19T14:29:33;11.47;;;6.67;;
66020;SDS011;52789;59.980;30.346;2023-11-19T14:34:28;10.77;;;6.50;;
66020;SDS011;52789;59.980;30.346;2023-11-19T14:36:55;13.18;;;5.70;;
66020;SDS011;52789;59.980;30.346;2023-11-19T14:39:20;13.43;;;6.27;;
66020;SDS011;52789;59.980;30.346;2023-11-19T14:41:51;13.23;;;5.67;;
66020;SDS011;52789;59.980;30.346;2023-11-19T14:44:18;12.77;;;6.50;;
66020;SDS011;52789;59.980;30.346;2023-11-19T14:49:36;8.75;;;6.18;;
66020;SDS011;52789;59.980;30.346;2023-11-19T14:52:04;14.68;;;6.88;;
66020;SDS011;52789;59.980;30.346;2023-11-19T14:54:30;9.37;;;5.77;;
66020;SDS011;52789;59.980;30.346;2023-11-19T14:56:56;10.33;;;6.03;;
66020;SDS011;52789;59.980;30.346;2023-11-19T14:59:22;9.60;;;5.63;;
66020;SDS011;52789;59.980;30.346;2023-11-19T15:01:48;12.60;;;5.93;;